Time;durP1;ratioP1;P1;durP2;ratioP2;P2;SDS_P1;SDS_P2;PMS_P1;PMS_P2;Temp;Humidity;BMP_temperature;BMP_pressure;BME280_temperature;BME280_humidity;BME280_pressure;Samples;Min_cycle;Max_cycle;Signal;HPM_P1;HPM_P2
2022/08/30 00:01:08;;;;;;;8.93;3.67;;;18.70;99.90;;;;;;4134629;28;20182;-87
2022/08/30 00:03:11;;;;;;;11.18;3.83;;;18.40;99.90;;;;;;4134585;28;20177;-86
2022/08/30 00:05:15;;;;;;;14.73;3.47;;;18.20;99.90;;;;;;4134316;28;20173;-86
2022/08/30 00:07:16;;;;;;;8.98;3.42;;;18.10;99.90;;;;;;4134249;28;20664;-92
2022/08/30 00:09:17;;;;;;;9.55;3.60;;;17.90;99.90;;;;;;4134017;28;20182;-87
2022/08/30 00:11:23;;;;;;;10.02;4.15;;;17.70;99.90;;;;;;4134159;28;20573;-87
2022/08/30 00:13:25;;;;;;;12.10;3.80;;;17.90;99.90;;;;;;4134258;28;20173;-89
2022/08/30 00:15:27;;;;;;;8.45;3.65;;;18.00;99.90;;;;;;4134401;28;20630;-86
2022/08/30 00:17:28;;;;;;;10.32;3.90;;;18.10;99.90;;;;;;4118288;28;20174;-90
2022/08/30 00:19:29;;;;;;;9.23;4.13;;;18.40;99.90;;;;;;4134153;28;20197;-86
2022/08/30 00:21:29;;;;;;;10.65;3.88;;;18.60;99.90;;;;;;4133841;28;20692;-86
2022/08/30 00:23:31;;;;;;;12.20;3.88;;;18.70;99.90;;;;;;4134093;28;20546;-86
2022/08/30 00:25:33;;;;;;;10.40;4.30;;;18.90;99.90;;;;;;4134117;28;20650;-87
2022/08/30 00:27:34;;;;;;;8.57;4.45;;;18.90;99.90;;;;;;4133898;28;20262;-89
2022/08/30 00:29:34;;;;;;;9.02;4.07;;;18.60;99.90;;;;;;4118119;28;20194;-89
2022/08/30 00:31:35;;;;;;;16.50;4.20;;;18.70;99.90;;;;;;4118176;28;20174;-87
2022/08/30 00:33:36;;;;;;;11.60;3.88;;;19.00;99.90;;;;;;4134000;28;20209;-86
2022/08/30 00:35:38;;;;;;;13.68;4.38;;;19.10;99.90;;;;;;4118007;28;20194;-92
2022/08/30 00:37:40;;;;;;;11.20;4.05;;;19.10;99.90;;;;;;4150097;28;20177;-86
2022/08/30 00:39:41;;;;;;;14.15;4.47;;;19.00;99.90;;;;;;4133743;28;20193;-86
2022/08/30 00:41:42;;;;;;;12.52;4.25;;;19.20;99.90;;;;;;4150172;28;20642;-92
2022/08/30 00:43:43;;;;;;;16.23;5.07;;;19.30;99.90;;;;;;4133740;28;20329;-92
2022/08/30 00:45:44;;;;;;;9.55;4.28;;;19.30;99.90;;;;;;4133874;28;20626;-87
2022/08/30 00:47:45;;;;;;;12.13;4.18;;;19.10;99.90;;;;;;4150101;28;20271;-86
2022/08/30 00:49:50;;;;;;;9.65;4.30;;;19.10;99.90;;;;;;4133817;28;20333;-86
2022/08/30 00:51:52;;;;;;;12.70;4.55;;;18.90;99.90;;;;;;4133898;28;20177;-86
2022/08/30 00:53:55;;;;;;;13.48;4.40;;;19.00;99.90;;;;;;4133692;28;20182;-86
2022/08/30 00:55:58;;;;;;;11.27;5.20;;;18.80;99.90;;;;;;4133739;28;20177;-86
2022/08/30 00:58:03;;;;;;;11.27;4.63;;;18.80;99.90;;;;;;4133706;28;20181;-92
2022/08/30 01:00:05;;;;;;;15.13;5.00;;;18.80;99.90;;;;;;4133730;28;20197;-87
2022/08/30 01:02:06;;;;;;;16.10;4.63;;;18.70;99.90;;;;;;4117468;28;20170;-86
2022/08/30 01:04:08;;;;;;;14.70;4.90;;;18.60;99.90;;;;;;4133688;28;20184;-86
2022/08/30 01:06:09;;;;;;;11.23;4.70;;;18.70;99.90;;;;;;4133660;28;20217;-86
2022/08/30 01:08:10;;;;;;;14.68;5.03;;;18.50;99.90;;;;;;4133446;28;20279;-86
2022/08/30 01:10:12;;;;;;;10.00;4.97;;;18.50;99.90;;;;;;4133363;28;20193;-86
2022/08/30 01:12:13;;;;;;;11.70;4.85;;;18.40;99.90;;;;;;4117421;28;20178;-86
2022/08/30 01:14:16;;;;;;;17.33;5.78;;;18.40;99.90;;;;;;4117462;28;20170;-91
2022/08/30 01:16:17;;;;;;;15.30;5.25;;;18.40;99.90;;;;;;4117404;28;20635;-91
2022/08/30 01:18:18;;;;;;;14.45;5.63;;;18.30;99.90;;;;;;4133511;28;20536;-87
2022/08/30 01:20:25;;;;;;;19.67;5.60;;;18.20;99.90;;;;;;4116988;28;20197;-86
2022/08/30 01:22:42;;;;;;;17.42;6.40;;;18.20;99.90;;;;;;4133176;28;20245;-86
2022/08/30 01:24:46;;;;;;;14.40;5.70;;;18.30;99.90;;;;;;4133168;28;20750;-91
2022/08/30 01:26:46;;;;;;;10.73;5.38;;;18.30;99.90;;;;;;4117068;28;20174;-92
2022/08/30 01:28:52;;;;;;;15.23;6.38;;;18.30;99.90;;;;;;4133015;28;20219;-86
2022/08/30 01:30:53;;;;;;;15.85;6.07;;;18.30;99.90;;;;;;4133210;28;20165;-92
2022/08/30 01:32:59;;;;;;;17.30;6.00;;;18.30;99.90;;;;;;4133060;28;20185;-92
2022/08/30 01:35:00;;;;;;;21.73;6.57;;;18.30;99.90;;;;;;4117142;28;20253;-86
2022/08/30 01:37:01;;;;;;;15.55;6.28;;;18.30;99.90;;;;;;4132990;28;20173;-91
2022/08/30 01:39:02;;;;;;;17.13;6.25;;;18.30;99.90;;;;;;4132676;28;20630;-87
2022/08/30 01:41:30;;;;;;;14.57;6.03;;;18.20;99.90;;;;;;4116675;28;20174;-87
2022/08/30 01:43:31;;;;;;;15.43;5.72;;;18.20;99.90;;;;;;4115644;28;20221;-91
2022/08/30 01:45:31;;;;;;;18.55;5.90;;;18.20;99.90;;;;;;4133809;28;20248;-91
2022/08/30 01:47:32;;;;;;;15.02;6.00;;;18.20;99.90;;;;;;4132554;28;20230;-92
2022/08/30 01:49:33;;;;;;;17.38;5.57;;;18.30;99.90;;;;;;4116080;28;20237;-91
2022/08/30 01:51:34;;;;;;;14.38;6.18;;;18.20;99.90;;;;;;4116846;28;20209;-91
2022/08/30 01:53:34;;;;;;;17.55;6.20;;;18.20;99.90;;;;;;4132689;28;20184;-87
2022/08/30 01:55:37;;;;;;;16.13;5.95;;;18.10;99.90;;;;;;4116636;28;20709;-87
2022/08/30 01:57:38;;;;;;;13.52;5.28;;;18.10;99.90;;;;;;4116813;28;20535;-87
2022/08/30 01:59:42;;;;;;;13.48;5.30;;;18.10;99.90;;;;;;4116467;28;20182;-86
2022/08/30 02:01:43;;;;;;;20.83;6.22;;;17.90;99.90;;;;;;4132819;28;20185;-87
2022/08/30 02:03:44;;;;;;;16.10;6.30;;;18.00;99.90;;;;;;4116593;28;20174;-87
2022/08/30 02:05:45;;;;;;;16.20;6.40;;;18.00;99.90;;;;;;4148868;28;20208;-86
2022/08/30 02:07:46;;;;;;;13.30;5.75;;;18.20;99.90;;;;;;4115906;28;20221;-86
2022/08/30 02:09:47;;;;;;;14.90;6.60;;;18.30;99.90;;;;;;4116249;28;20528;-86
2022/08/30 02:11:48;;;;;;;16.85;6.90;;;18.30;99.90;;;;;;4116449;28;20174;-91
2022/08/30 02:13:48;;;;;;;11.57;6.25;;;18.20;99.90;;;;;;4132375;28;20673;-86
2022/08/30 02:15:49;;;;;;;13.68;6.80;;;18.10;99.90;;;;;;4132384;28;20166;-86
2022/08/30 02:17:50;;;;;;;18.40;7.28;;;18.00;99.90;;;;;;4116377;28;20213;-86
2022/08/30 02:19:50;;;;;;;15.60;5.93;;;17.90;99.90;;;;;;4116135;28;20567;-86
2022/08/30 02:21:51;;;;;;;12.68;6.38;;;17.90;99.90;;;;;;4116145;28;20575;-93
2022/08/30 02:23:52;;;;;;;19.77;7.78;;;17.90;99.90;;;;;;4132729;28;20176;-87
2022/08/30 02:25:53;;;;;;;17.02;6.60;;;17.80;99.90;;;;;;4132448;28;20165;-92
2022/08/30 02:27:54;;;;;;;14.50;7.43;;;17.80;99.90;;;;;;4132361;28;20220;-86
2022/08/30 02:29:55;;;;;;;16.00;7.03;;;17.90;99.90;;;;;;4132324;28;20280;-87
2022/08/30 02:31:55;;;;;;;15.05;7.53;;;17.80;99.90;;;;;;4116166;28;20197;-87
2022/08/30 02:33:56;;;;;;;22.02;7.72;;;17.80;99.90;;;;;;4116188;28;20189;-87
2022/08/30 02:35:57;;;;;;;14.07;7.10;;;17.80;99.90;;;;;;4132167;28;20184;-91
2022/08/30 02:37:58;;;;;;;18.05;7.80;;;17.70;99.90;;;;;;4132237;28;20166;-86
2022/08/30 02:39:58;;;;;;;18.83;6.88;;;17.70;99.90;;;;;;4132038;28;20201;-87
2022/08/30 02:41:59;;;;;;;15.77;7.13;;;17.50;99.90;;;;;;4132247;28;20204;-87
2022/08/30 02:44:00;;;;;;;18.45;7.63;;;17.50;99.90;;;;;;4132268;28;20196;-90
2022/08/30 02:46:01;;;;;;;18.48;7.53;;;17.50;99.90;;;;;;4132122;28;20173;-87
2022/08/30 02:48:02;;;;;;;17.50;7.38;;;17.40;99.90;;;;;;4131982;28;20287;-91
2022/08/30 02:50:05;;;;;;;19.45;7.95;;;17.30;99.90;;;;;;4131898;28;20314;-86
2022/08/30 02:52:06;;;;;;;20.38;8.40;;;17.40;99.90;;;;;;4132053;28;20180;-87
2022/08/30 02:54:07;;;;;;;18.73;7.88;;;17.40;99.90;;;;;;4131952;28;20177;-86
2022/08/30 02:56:08;;;;;;;16.95;7.22;;;17.50;99.90;;;;;;4132121;28;20190;-87
2022/08/30 02:58:09;;;;;;;19.23;8.23;;;17.50;99.90;;;;;;4131982;28;20165;-87
2022/08/30 03:00:14;;;;;;;20.15;8.13;;;17.50;99.90;;;;;;4132374;28;20284;-90
2022/08/30 03:02:15;;;;;;;20.48;8.95;;;17.40;99.90;;;;;;4135366;28;20231;-88
2022/08/30 03:04:15;;;;;;;16.80;8.55;;;17.50;99.90;;;;;;4135383;28;20541;-88
2022/08/30 03:06:17;;;;;;;17.67;7.47;;;17.50;99.90;;;;;;4119207;28;20224;-92
2022/08/30 03:08:18;;;;;;;21.08;8.65;;;17.50;99.90;;;;;;4135318;28;20216;-86
2022/08/30 03:10:19;;;;;;;16.90;6.97;;;17.50;99.90;;;;;;4135046;28;20283;-86
2022/08/30 03:12:19;;;;;;;19.75;8.30;;;17.60;99.90;;;;;;4135394;28;20666;-92
2022/08/30 03:14:20;;;;;;;15.70;7.20;;;17.50;99.90;;;;;;4119029;28;20170;-89
2022/08/30 03:16:21;;;;;;;17.50;7.90;;;17.40;99.90;;;;;;4118912;28;20193;-92
2022/08/30 03:18:23;;;;;;;15.80;7.80;;;17.40;99.90;;;;;;4119015;28;20174;-87
2022/08/30 03:20:23;;;;;;;14.85;7.93;;;17.40;99.90;;;;;;4118996;28;20193;-87
2022/08/30 03:22:24;;;;;;;17.10;7.80;;;17.30;99.90;;;;;;4135089;28;20225;-86
2022/08/30 03:24:25;;;;;;;15.93;7.47;;;17.30;99.90;;;;;;4134941;28;20178;-87
2022/08/30 03:26:26;;;;;;;20.20;7.18;;;17.40;99.90;;;;;;4118971;28;20181;-86
2022/08/30 03:28:26;;;;;;;14.60;7.00;;;17.40;99.90;;;;;;4135063;28;20240;-87
2022/08/30 03:30:27;;;;;;;21.10;8.27;;;17.20;99.90;;;;;;4118669;28;20189;-87
2022/08/30 03:32:28;;;;;;;12.82;6.93;;;17.40;99.90;;;;;;4134949;28;20188;-86
2022/08/30 03:34:29;;;;;;;17.80;7.43;;;17.50;99.90;;;;;;4118694;28;20213;-86
2022/08/30 03:36:31;;;;;;;19.60;7.68;;;17.60;99.90;;;;;;4118796;28;20174;-87
2022/08/30 03:38:31;;;;;;;20.58;8.02;;;17.50;99.90;;;;;;4134905;28;20189;-86
2022/08/30 03:40:32;;;;;;;24.88;8.07;;;17.60;99.90;;;;;;4150925;28;20172;-87
2022/08/30 03:42:33;;;;;;;16.27;8.07;;;17.70;99.90;;;;;;4118683;28;20187;-87
2022/08/30 03:44:34;;;;;;;16.58;7.88;;;17.80;99.90;;;;;;4150847;28;20165;-93
2022/08/30 03:46:35;;;;;;;24.48;8.10;;;17.70;99.90;;;;;;4118597;28;20276;-86
2022/08/30 03:48:35;;;;;;;25.65;8.88;;;17.70;99.90;;;;;;4134725;28;20221;-87
2022/08/30 03:50:36;;;;;;;15.80;8.30;;;17.70;99.90;;;;;;4150544;28;20231;-92
2022/08/30 03:52:37;;;;;;;13.85;7.38;;;17.70;99.90;;;;;;4134417;28;20188;-87
2022/08/30 03:54:39;;;;;;;17.40;7.60;;;17.50;99.90;;;;;;4134522;28;20708;-86
2022/08/30 03:56:40;;;;;;;20.27;8.77;;;17.40;99.90;;;;;;4134782;28;20252;-86
2022/08/30 03:58:40;;;;;;;16.35;8.35;;;17.40;99.90;;;;;;4134393;28;20177;-91
2022/08/30 04:00:41;;;;;;;15.38;8.10;;;17.30;99.90;;;;;;4134455;28;20166;-88
2022/08/30 04:02:42;;;;;;;14.18;7.68;;;17.30;99.90;;;;;;4150776;28;20188;-87
2022/08/30 04:04:43;;;;;;;16.98;7.57;;;17.20;99.90;;;;;;4134629;28;20166;-89
2022/08/30 04:06:43;;;;;;;17.25;7.85;;;17.30;99.90;;;;;;4118451;28;20253;-87
2022/08/30 04:08:44;;;;;;;16.58;7.82;;;17.40;99.90;;;;;;4118098;28;20296;-86
2022/08/30 04:10:46;;;;;;;14.15;7.75;;;17.50;99.90;;;;;;4134350;28;20181;-87
2022/08/30 04:12:48;;;;;;;21.10;7.97;;;17.80;99.90;;;;;;4117489;28;20182;-90
2022/08/30 04:14:49;;;;;;;13.38;7.90;;;17.90;99.90;;;;;;4134268;28;20176;-90
2022/08/30 04:16:50;;;;;;;17.77;8.18;;;18.10;99.90;;;;;;4134186;28;20682;-86
2022/08/30 04:18:50;;;;;;;14.02;8.05;;;18.10;99.90;;;;;;4134084;28;20554;-87
2022/08/30 04:20:52;;;;;;;23.42;7.90;;;17.60;99.90;;;;;;4134557;28;20184;-91
2022/08/30 04:22:53;;;;;;;16.40;7.47;;;17.50;99.90;;;;;;4118181;28;20209;-92
2022/08/30 04:24:53;;;;;;;15.63;8.00;;;17.60;99.90;;;;;;4134262;28;20534;-92
2022/08/30 04:26:54;;;;;;;19.48;8.07;;;17.70;99.90;;;;;;4134121;28;20178;-86
2022/08/30 04:28:55;;;;;;;17.70;7.85;;;17.80;99.90;;;;;;4133948;28;20205;-87
2022/08/30 04:30:56;;;;;;;17.52;8.25;;;17.90;99.90;;;;;;4134207;28;20351;-94
2022/08/30 04:32:57;;;;;;;21.33;8.18;;;17.70;99.90;;;;;;4134031;28;20178;-90
2022/08/30 04:34:58;;;;;;;14.77;8.63;;;17.70;99.90;;;;;;4133819;28;20174;-91
2022/08/30 04:36:59;;;;;;;21.38;8.98;;;17.50;99.90;;;;;;4133821;28;20690;-92
2022/08/30 04:38:59;;;;;;;23.35;8.48;;;17.50;99.90;;;;;;4117828;28;20198;-93
2022/08/30 04:41:00;;;;;;;16.27;8.35;;;17.30;99.90;;;;;;4133958;28;20208;-92
2022/08/30 04:43:02;;;;;;;18.63;8.00;;;17.40;99.90;;;;;;4133905;28;20178;-87
2022/08/30 04:45:06;;;;;;;22.02;8.50;;;17.30;99.90;;;;;;4117783;28;20178;-90
2022/08/30 04:47:08;;;;;;;21.13;9.50;;;17.20;99.90;;;;;;4134862;28;20177;-92
2022/08/30 04:49:09;;;;;;;17.15;8.77;;;17.30;99.90;;;;;;4133655;28;20189;-87
2022/08/30 04:51:13;;;;;;;21.00;9.38;;;17.30;99.90;;;;;;4117912;28;20182;-86
2022/08/30 04:53:14;;;;;;;27.85;8.57;;;17.40;99.90;;;;;;4133990;28;20173;-90
2022/08/30 04:55:15;;;;;;;18.60;8.57;;;17.10;99.90;;;;;;4117834;28;20317;-86
2022/08/30 04:57:16;;;;;;;19.98;8.65;;;17.10;99.90;;;;;;4133597;28;20654;-87
2022/08/30 04:59:17;;;;;;;21.13;8.35;;;16.80;99.90;;;;;;4133746;28;20189;-87
2022/08/30 05:01:25;;;;;;;19.25;9.20;;;16.80;99.90;;;;;;4133902;28;20214;-87
2022/08/30 05:03:25;;;;;;;18.65;8.35;;;17.00;99.90;;;;;;4133799;28;20260;-87
2022/08/30 05:05:38;;;;;;;20.20;8.10;;;17.00;99.90;;;;;;4133499;28;20224;-87
2022/08/30 05:07:39;;;;;;;17.60;9.13;;;17.10;99.90;;;;;;4133430;28;20678;-88
2022/08/30 05:09:39;;;;;;;22.38;8.88;;;17.10;99.90;;;;;;4117234;28;20329;-90
2022/08/30 05:11:42;;;;;;;20.60;9.10;;;17.20;99.90;;;;;;4133510;28;20173;-88
2022/08/30 05:13:43;;;;;;;20.90;9.15;;;17.30;99.90;;;;;;4117387;28;20182;-86
2022/08/30 05:15:44;;;;;;;26.80;8.80;;;17.40;99.90;;;;;;4117193;28;20544;-87
2022/08/30 05:17:45;;;;;;;17.63;9.27;;;17.30;99.90;;;;;;4134368;28;20616;-86
2022/08/30 05:19:45;;;;;;;27.95;10.35;;;17.40;99.90;;;;;;4149265;28;20247;-86
2022/08/30 05:21:46;;;;;;;17.60;9.50;;;17.40;99.90;;;;;;4133631;28;20184;-87
2022/08/30 05:23:48;;;;;;;17.75;10.00;;;17.30;99.90;;;;;;4132470;28;20166;-86
2022/08/30 05:25:49;;;;;;;27.15;9.48;;;17.10;99.90;;;;;;4117370;28;20706;-87
2022/08/30 05:27:51;;;;;;;15.93;9.45;;;17.10;99.90;;;;;;4116806;28;20206;-87
2022/08/30 05:29:51;;;;;;;18.80;9.75;;;17.20;99.90;;;;;;4116984;28;20194;-87
2022/08/30 05:31:52;;;;;;;25.33;9.85;;;17.10;99.90;;;;;;4133227;28;20173;-87
2022/08/30 05:33:54;;;;;;;18.55;8.98;;;17.00;99.90;;;;;;4133126;28;20170;-92
2022/08/30 05:35:55;;;;;;;19.67;9.02;;;17.00;99.90;;;;;;4116964;28;20175;-92
2022/08/30 05:37:56;;;;;;;20.10;10.23;;;17.10;99.90;;;;;;4132947;28;20221;-87
2022/08/30 05:39:58;;;;;;;22.13;10.65;;;17.20;99.90;;;;;;4132862;28;20293;-87
2022/08/30 05:41:58;;;;;;;19.90;9.77;;;17.20;99.90;;;;;;4116999;28;20249;-87
2022/08/30 05:44:00;;;;;;;14.02;9.45;;;17.20;99.90;;;;;;4133162;28;20653;-88
2022/08/30 05:46:05;;;;;;;18.27;9.18;;;17.30;99.90;;;;;;4149178;28;20177;-89
2022/08/30 05:48:05;;;;;;;15.88;10.23;;;17.30;99.90;;;;;;4132975;28;20201;-93
2022/08/30 05:50:07;;;;;;;16.27;9.63;;;17.30;99.90;;;;;;4116720;28;20229;-92
2022/08/30 05:52:08;;;;;;;19.58;9.57;;;17.30;99.90;;;;;;4132956;28;20170;-87
2022/08/30 05:54:10;;;;;;;17.63;9.73;;;17.30;99.90;;;;;;4132674;28;20503;-86
2022/08/30 05:56:14;;;;;;;18.17;9.57;;;17.40;99.90;;;;;;4132931;28;20245;-86
2022/08/30 05:58:14;;;;;;;20.10;9.88;;;17.30;99.90;;;;;;4132617;28;20209;-86
2022/08/30 06:00:17;;;;;;;16.98;9.18;;;17.30;99.90;;;;;;4132819;28;20209;-86
2022/08/30 06:02:17;;;;;;;16.83;9.80;;;17.40;99.90;;;;;;4132721;28;20543;-92
2022/08/30 06:04:18;;;;;;;15.77;9.75;;;17.30;99.90;;;;;;4132620;28;20261;-86
2022/08/30 06:06:19;;;;;;;15.23;9.77;;;17.40;99.90;;;;;;4116405;28;20163;-90
2022/08/30 06:08:20;;;;;;;16.45;8.82;;;17.30;99.90;;;;;;4132560;28;20295;-90
2022/08/30 06:10:21;;;;;;;18.58;9.60;;;17.40;99.90;;;;;;4132629;28;20185;-87
2022/08/30 06:12:22;;;;;;;20.42;9.93;;;17.40;99.90;;;;;;4132817;28;20209;-86
2022/08/30 06:14:23;;;;;;;22.40;10.25;;;17.50;99.90;;;;;;4148957;28;20165;-87
2022/08/30 06:16:26;;;;;;;21.10;9.63;;;17.50;99.90;;;;;;4132852;28;20599;-87
2022/08/30 06:18:27;;;;;;;20.55;9.85;;;17.70;99.90;;;;;;4132713;28;20599;-87
2022/08/30 06:20:27;;;;;;;15.70;10.43;;;17.70;99.90;;;;;;4132514;28;20185;-87
2022/08/30 06:22:28;;;;;;;16.92;8.63;;;17.80;99.90;;;;;;4116376;28;20174;-91
2022/08/30 06:24:29;;;;;;;17.98;10.70;;;17.70;99.90;;;;;;4132274;28;20186;-87
2022/08/30 06:26:31;;;;;;;15.23;9.95;;;17.70;99.90;;;;;;4132393;28;20196;-87
2022/08/30 06:28:32;;;;;;;17.17;10.05;;;17.70;99.90;;;;;;4148477;28;20263;-87
2022/08/30 06:30:33;;;;;;;16.20;9.43;;;17.70;99.90;;;;;;4148542;28;20260;-87
2022/08/30 06:32:34;;;;;;;12.57;9.40;;;17.70;99.90;;;;;;4148351;28;20168;-91
2022/08/30 06:34:35;;;;;;;15.65;9.95;;;17.70;99.90;;;;;;4132223;28;20177;-92
2022/08/30 06:36:35;;;;;;;15.75;9.65;;;17.70;99.90;;;;;;4132061;28;20276;-89
2022/08/30 06:38:37;;;;;;;12.75;9.20;;;17.60;99.90;;;;;;4132257;28;20252;-85
2022/08/30 06:40:38;;;;;;;17.08;9.40;;;17.70;99.90;;;;;;4116320;28;20257;-86
2022/08/30 06:42:39;;;;;;;18.13;9.68;;;17.60;99.90;;;;;;4116216;28;20550;-88
2022/08/30 06:44:39;;;;;;;16.17;9.32;;;17.70;99.90;;;;;;4132266;28;20204;-90
2022/08/30 06:46:40;;;;;;;16.55;9.63;;;17.60;99.90;;;;;;4132158;28;20173;-93
2022/08/30 06:48:41;;;;;;;15.68;9.40;;;17.70;99.90;;;;;;4131995;28;20241;-92
2022/08/30 06:50:43;;;;;;;13.68;9.38;;;17.80;99.90;;;;;;4116024;28;20202;-93
2022/08/30 06:52:44;;;;;;;13.93;9.15;;;17.90;99.90;;;;;;4116083;28;20173;-90
2022/08/30 06:54:45;;;;;;;19.17;9.30;;;18.00;99.90;;;;;;4116161;28;20179;-87
2022/08/30 06:56:46;;;;;;;16.20;9.30;;;18.00;99.90;;;;;;4131977;28;20178;-87
2022/08/30 06:58:47;;;;;;;14.68;9.38;;;18.10;99.90;;;;;;4115886;28;20257;-94
2022/08/30 07:00:47;;;;;;;17.13;9.43;;;18.10;99.90;;;;;;4148215;28;20215;-87
2022/08/30 07:02:48;;;;;;;16.13;9.52;;;18.10;99.90;;;;;;4132305;28;20190;-87
2022/08/30 07:04:49;;;;;;;19.13;8.98;;;18.20;99.90;;;;;;4115984;28;20202;-86
2022/08/30 07:06:50;;;;;;;19.63;9.18;;;18.20;99.90;;;;;;4131913;28;20189;-92
2022/08/30 07:08:51;;;;;;;14.80;8.45;;;18.40;99.90;;;;;;4131833;28;20244;-86
2022/08/30 07:10:53;;;;;;;19.38;9.02;;;18.50;99.90;;;;;;4131908;28;20205;-91
2022/08/30 07:12:54;;;;;;;19.00;9.15;;;18.50;99.90;;;;;;4115817;28;20178;-86
2022/08/30 07:14:54;;;;;;;16.13;8.77;;;18.70;99.90;;;;;;4148048;28;20177;-86
2022/08/30 07:16:55;;;;;;;12.70;8.30;;;19.00;99.90;;;;;;4132062;28;20177;-87
2022/08/30 07:18:57;;;;;;;14.00;8.10;;;19.30;99.90;;;;;;4131815;28;20227;-86
2022/08/30 07:21:06;;;;;;;10.85;8.07;;;19.50;99.90;;;;;;4115730;28;20268;-88
2022/08/30 07:23:08;;;;;;;13.43;8.32;;;19.30;99.90;;;;;;4147985;28;20628;-91
2022/08/30 07:25:09;;;;;;;15.77;8.25;;;19.40;99.90;;;;;;4131568;28;20173;-93
2022/08/30 07:27:09;;;;;;;18.60;8.75;;;19.50;99.90;;;;;;4131818;28;20260;-92
2022/08/30 07:29:10;;;;;;;15.27;8.52;;;19.60;99.90;;;;;;4115586;28;20217;-87
2022/08/30 07:31:12;;;;;;;11.45;7.88;;;19.60;99.90;;;;;;4115874;28;20182;-91
2022/08/30 07:33:13;;;;;;;13.63;8.23;;;19.60;99.90;;;;;;4115957;28;20265;-91
2022/08/30 07:35:14;;;;;;;16.33;8.20;;;19.70;99.90;;;;;;4131781;28;20181;-86
2022/08/30 07:37:15;;;;;;;15.60;8.00;;;19.80;99.90;;;;;;4132053;28;20623;-86
2022/08/30 07:39:16;;;;;;;15.85;8.43;;;20.00;99.90;;;;;;4115641;28;20213;-87
2022/08/30 07:41:23;;;;;;;9.80;7.60;;;20.10;99.90;;;;;;4148072;28;20203;-88
2022/08/30 07:43:23;;;;;;;14.90;8.85;;;20.10;99.90;;;;;;4131719;28;20166;-86
2022/08/30 07:45:24;;;;;;;14.15;7.65;;;20.10;99.90;;;;;;4115638;28;20201;-86
2022/08/30 07:47:25;;;;;;;12.63;7.50;;;20.30;99.90;;;;;;4132283;28;20173;-86
2022/08/30 07:49:25;;;;;;;11.05;7.47;;;20.70;99.90;;;;;;4118510;28;20319;-85
2022/08/30 07:51:27;;;;;;;14.30;7.32;;;20.60;99.90;;;;;;4134585;28;20680;-86
2022/08/30 07:53:28;;;;;;;12.63;7.60;;;20.60;99.90;;;;;;4134585;28;20208;-92
2022/08/30 07:55:28;;;;;;;17.85;7.78;;;20.60;99.90;;;;;;4134336;28;20173;-86
2022/08/30 07:57:32;;;;;;;14.88;7.22;;;20.80;99.90;;;;;;4134365;28;20183;-87
2022/08/30 07:59:33;;;;;;;9.18;6.15;;;21.00;99.90;;;;;;4118164;28;20195;-91
2022/08/30 08:01:34;;;;;;;12.65;6.88;;;21.20;99.90;;;;;;4118484;28;20225;-86
2022/08/30 08:03:35;;;;;;;14.48;7.15;;;21.40;99.90;;;;;;4134675;28;20574;-86
2022/08/30 08:05:42;;;;;;;13.75;6.97;;;21.60;99.90;;;;;;4134406;28;20256;-86
2022/08/30 08:07:42;;;;;;;13.40;6.55;;;21.70;99.90;;;;;;4134326;28;20284;-86
2022/08/30 08:09:43;;;;;;;16.13;6.60;;;21.80;99.90;;;;;;4118198;28;20194;-86
2022/08/30 08:11:44;;;;;;;18.73;6.75;;;21.90;99.90;;;;;;4150627;28;20177;-91
2022/08/30 08:13:47;;;;;;;12.48;6.30;;;22.00;99.90;;;;;;4134549;28;20200;-89
2022/08/30 08:15:48;;;;;;;16.92;6.50;;;22.10;99.90;;;;;;4134373;28;20595;-86
2022/08/30 08:17:49;;;;;;;14.18;6.55;;;22.40;99.90;;;;;;4117861;28;20178;-87
2022/08/30 08:19:50;;;;;;;11.32;5.55;;;22.60;99.90;;;;;;4134036;28;20197;-90
2022/08/30 08:21:55;;;;;;;16.00;6.13;;;22.70;99.90;;;;;;4134195;28;20235;-89
2022/08/30 08:23:56;;;;;;;13.18;5.88;;;22.60;99.90;;;;;;4134121;28;20174;-87
2022/08/30 08:25:57;;;;;;;9.75;5.53;;;22.60;99.90;;;;;;4134071;28;20184;-91
2022/08/30 08:27:57;;;;;;;15.88;5.80;;;22.40;99.90;;;;;;4117886;28;20250;-91
2022/08/30 08:29:58;;;;;;;9.90;5.25;;;22.30;99.90;;;;;;4134044;28;20200;-91
2022/08/30 08:31:59;;;;;;;10.27;6.05;;;22.40;99.90;;;;;;4149903;28;20184;-87
2022/08/30 08:34:01;;;;;;;11.73;5.57;;;22.50;99.90;;;;;;4133834;28;20208;-92
2022/08/30 08:36:02;;;;;;;10.43;5.93;;;22.50;99.90;;;;;;4133933;28;20169;-87
2022/08/30 08:38:03;;;;;;;12.93;5.38;;;22.70;99.90;;;;;;4118067;28;20205;-87
2022/08/30 08:40:06;;;;;;;13.50;5.50;;;22.80;99.90;;;;;;4133684;28;20197;-92
2022/08/30 08:42:25;;;;;;;12.88;5.45;;;22.80;99.90;;;;;;4150176;28;20259;-88
2022/08/30 08:44:38;;;;;;;12.02;5.13;;;22.80;99.90;;;;;;4133858;28;20166;-86
2022/08/30 08:47:09;;;;;;;14.43;5.50;;;22.70;99.90;;;;;;4150097;28;20261;-86
2022/08/30 08:49:10;;;;;;;12.40;5.60;;;22.70;99.90;;;;;;4100297;28;20764;-93
2022/08/30 08:53:35;;;;;;;12.25;4.85;;;22.40;99.90;;;;;;4150070;28;20247;-92
2022/08/30 08:55:41;;;;;;;9.52;5.00;;;22.60;99.90;;;;;;4133840;28;20169;-87
2022/08/30 08:57:42;;;;;;;10.75;5.35;;;22.70;99.90;;;;;;4133549;28;20209;-86
2022/08/30 08:59:44;;;;;;;13.45;6.03;;;22.70;99.90;;;;;;4133178;28;20248;-91
2022/08/30 09:01:45;;;;;;;11.63;5.22;;;23.00;99.90;;;;;;4133673;28;20166;-87
2022/08/30 09:03:47;;;;;;;13.48;5.60;;;23.20;99.90;;;;;;4133656;28;20231;-87
2022/08/30 09:05:49;;;;;;;15.27;6.15;;;23.40;99.90;;;;;;4117548;28;20639;-87
2022/08/30 09:08:00;;;;;;;9.68;5.13;;;23.40;99.90;;;;;;4149615;28;20295;-86
2022/08/30 09:10:03;;;;;;;10.15;5.25;;;23.50;99.90;;;;;;4133201;28;20216;-90
2022/08/30 09:12:07;;;;;;;8.38;4.80;;;23.70;99.90;;;;;;4133238;28;20196;-88
2022/08/30 09:14:18;;;;;;;13.43;4.75;;;23.80;99.90;;;;;;4133186;28;20185;-87
2022/08/30 09:16:48;;;;;;;13.30;5.10;;;23.90;99.90;;;;;;4133497;28;20166;-87
2022/08/30 09:18:49;;;;;;;13.07;5.15;;;23.90;99.90;;;;;;4133282;28;20566;-87
2022/08/30 09:20:51;;;;;;;14.60;4.63;;;23.90;99.90;;;;;;4133366;28;20232;-87
2022/08/30 09:22:51;;;;;;;18.15;4.50;;;24.10;99.90;;;;;;4133161;28;20173;-91
2022/08/30 09:24:59;;;;;;;16.67;5.40;;;23.90;99.90;;;;;;4133084;28;20236;-87
2022/08/30 09:27:14;;;;;;;15.00;4.75;;;23.60;99.90;;;;;;4133141;28;20209;-92
2022/08/30 09:29:16;;;;;;;11.57;4.70;;;23.60;99.90;;;;;;4133175;28;20603;-90
2022/08/30 09:31:17;;;;;;;10.90;4.50;;;23.60;99.90;;;;;;4117061;28;20181;-89
2022/08/30 09:33:19;;;;;;;11.50;4.95;;;23.80;99.90;;;;;;4149631;28;20595;-91
2022/08/30 09:35:23;;;;;;;7.93;4.93;;;24.10;99.90;;;;;;4133189;28;20177;-87
2022/08/30 09:37:48;;;;;;;8.25;4.88;;;24.20;99.90;;;;;;4132967;28;20227;-87
2022/08/30 09:39:49;;;;;;;8.38;4.25;;;24.30;99.90;;;;;;4132774;28;20275;-87
2022/08/30 09:41:50;;;;;;;12.88;4.50;;;24.30;99.90;;;;;;4116968;28;20269;-86
2022/08/30 09:44:07;;;;;;;9.75;4.25;;;24.20;99.90;;;;;;4134507;28;20158;-94
2022/08/30 09:46:09;;;;;;;9.80;4.22;;;24.00;99.90;;;;;;4149311;28;20243;-91
2022/08/30 09:48:26;;;;;;;10.80;5.07;;;24.00;99.90;;;;;;4133955;28;20296;-86
2022/08/30 09:50:32;;;;;;;11.60;4.22;;;24.00;99.90;;;;;;4132714;28;20244;-91
2022/08/30 09:52:54;;;;;;;15.05;4.38;;;24.00;99.90;;;;;;4133039;28;20181;-87
2022/08/30 09:55:10;;;;;;;13.30;4.10;;;24.00;99.90;;;;;;4149039;28;20184;-86
2022/08/30 09:57:24;;;;;;;9.75;4.50;;;24.20;99.90;;;;;;4132859;28;20174;-91
2022/08/30 09:59:56;;;;;;;8.32;4.57;;;24.20;99.90;;;;;;4132610;28;20212;-87
2022/08/30 10:02:09;;;;;;;11.50;4.20;;;24.00;99.90;;;;;;4133008;28;20175;-86
2022/08/30 10:04:28;;;;;;;11.18;4.82;;;23.80;99.90;;;;;;4132805;28;20178;-91
2022/08/30 10:06:50;;;;;;;9.75;4.18;;;23.80;99.90;;;;;;4133466;28;20236;-87
2022/08/30 10:09:14;;;;;;;16.27;4.60;;;24.10;99.90;;;;;;4132318;28;20220;-86
2022/08/30 10:11:21;;;;;;;11.25;3.92;;;24.30;99.90;;;;;;4132127;28;20174;-87
2022/08/30 10:13:55;;;;;;;9.98;3.92;;;24.40;99.90;;;;;;4133289;28;20187;-90
2022/08/30 10:16:17;;;;;;;8.90;4.45;;;24.40;99.90;;;;;;4148639;28;20173;-87
2022/08/30 10:18:55;;;;;;;10.20;4.18;;;24.20;99.90;;;;;;4133428;28;20626;-90
2022/08/30 10:21:10;;;;;;;11.38;3.58;;;24.30;99.90;;;;;;4132473;28;20574;-89
2022/08/30 10:23:15;;;;;;;11.20;3.42;;;24.60;99.90;;;;;;4132495;28;20199;-92
2022/08/30 10:25:17;;;;;;;11.38;3.60;;;24.90;99.90;;;;;;4132430;28;20166;-86
2022/08/30 10:27:24;;;;;;;12.30;2.92;;;24.80;99.90;;;;;;4132166;28;20591;-89
2022/08/30 10:29:44;;;;;;;10.98;3.17;;;24.90;99.90;;;;;;4132255;28;20328;-91
2022/08/30 10:31:51;;;;;;;10.40;2.78;;;25.10;99.90;;;;;;4148597;28;20643;-88
2022/08/30 10:33:57;;;;;;;7.78;3.10;;;25.50;99.90;;;;;;4132338;28;20173;-87
2022/08/30 10:36:01;;;;;;;9.20;3.10;;;25.50;99.90;;;;;;4132139;28;20216;-90